createdAt,value
2022-10-06T00:00:15.777Z,2.57
2022-10-06T00:02:43.561Z,2.80
2022-10-06T00:05:12.956Z,3.03
2022-10-06T00:07:40.763Z,2.50
2022-10-06T00:10:09.955Z,2.57
2022-10-06T00:12:41.829Z,2.80
2022-10-06T00:15:11.585Z,2.83
2022-10-06T00:17:39.360Z,2.67
2022-10-06T00:20:08.698Z,3.07
2022-10-06T00:22:38.692Z,2.57
2022-10-06T00:25:07.370Z,2.17
2022-10-06T00:27:36.041Z,3.77
2022-10-06T00:30:03.995Z,3.23
2022-10-06T00:32:31.683Z,3.10
2022-10-06T00:34:59.649Z,2.80
2022-10-06T00:37:28.176Z,3.00
2022-10-06T00:39:57.249Z,2.23
2022-10-06T00:42:26.863Z,2.27
2022-10-06T00:44:54.746Z,2.80
2022-10-06T00:47:24.423Z,2.80
2022-10-06T00:49:52.409Z,2.40
2022-10-06T00:52:21.548Z,2.80
2022-10-06T00:54:49.347Z,2.10
2022-10-06T00:57:18.782Z,2.73
2022-10-06T00:59:46.672Z,2.10
2022-10-06T01:02:19.354Z,2.43
2022-10-06T01:04:50.721Z,2.87
2022-10-06T01:07:18.547Z,1.47
2022-10-06T01:09:46.588Z,3.00
2022-10-06T01:12:14.795Z,3.47
2022-10-06T01:14:44.231Z,3.00
2022-10-06T01:17:17.188Z,2.03
2022-10-06T01:19:49.814Z,3.40
2022-10-06T01:22:19.693Z,2.10
2022-10-06T01:24:52.549Z,2.53
2022-10-06T01:27:21.609Z,2.30
2022-10-06T01:29:52.584Z,2.53
2022-10-06T01:32:20.461Z,2.47
2022-10-06T01:34:48.248Z,2.93
2022-10-06T01:37:16.558Z,2.43
2022-10-06T01:39:45.567Z,2.87
2022-10-06T01:42:14.999Z,2.60
2022-10-06T01:44:42.736Z,2.23
2022-10-06T01:47:10.560Z,2.53
2022-10-06T01:49:38.331Z,2.83
2022-10-06T01:52:06.112Z,2.50
2022-10-06T01:54:34.011Z,2.47
2022-10-06T01:57:02.862Z,2.00
2022-10-06T01:59:32.662Z,3.23
2022-10-06T02:02:00.563Z,2.40
2022-10-06T02:04:28.419Z,2.97
2022-10-06T02:06:56.381Z,2.57
2022-10-06T02:09:24.352Z,2.40
2022-10-06T02:11:53.576Z,2.70
2022-10-06T02:14:21.317Z,2.80
2022-10-06T02:16:50.738Z,2.97
2022-10-06T02:19:18.602Z,2.80
2022-10-06T02:21:46.315Z,2.70
2022-10-06T02:24:14.011Z,2.40
2022-10-06T02:26:41.963Z,2.50
2022-10-06T02:29:09.756Z,3.00
2022-10-06T02:31:37.492Z,2.87
2022-10-06T02:34:06.567Z,2.90
2022-10-06T02:36:35.237Z,2.80
2022-10-06T02:39:03.380Z,3.07
2022-10-06T02:41:32.652Z,2.60
2022-10-06T02:44:00.980Z,2.90
2022-10-06T02:46:29.974Z,3.30
2022-10-06T02:48:57.760Z,3.00
2022-10-06T02:51:26.976Z,3.50
2022-10-06T02:53:55.333Z,2.50
2022-10-06T02:56:24.700Z,3.00
2022-10-06T02:58:53.154Z,2.50
2022-10-06T03:01:33.323Z,2.70
2022-10-06T03:04:11.635Z,3.17
2022-10-06T03:06:42.770Z,2.90
2022-10-06T03:09:19.334Z,2.60
2022-10-06T03:11:47.229Z,2.37
2022-10-06T03:14:25.798Z,2.97
2022-10-06T03:16:54.981Z,2.37
2022-10-06T03:19:26.671Z,3.00
2022-10-06T03:21:56.380Z,2.43
2022-10-06T03:24:32.739Z,3.10
2022-10-06T03:27:01.036Z,2.43
2022-10-06T03:29:31.003Z,3.10
2022-10-06T03:31:59.053Z,2.73
2022-10-06T03:34:27.168Z,2.70
2022-10-06T03:36:57.688Z,2.80
2022-10-06T03:39:27.526Z,2.90
2022-10-06T03:41:55.393Z,2.43
2022-10-06T03:44:23.166Z,2.67
2022-10-06T03:46:51.316Z,3.03
2022-10-06T03:49:19.897Z,2.57
2022-10-06T03:51:48.167Z,1.83
2022-10-06T03:54:27.365Z,2.00
2022-10-06T03:56:55.491Z,1.80
2022-10-06T03:59:23.272Z,2.00
2022-10-06T04:01:52.972Z,2.90
2022-10-06T04:04:27.364Z,2.60
2022-10-06T04:07:00.543Z,2.20
2022-10-06T04:09:29.904Z,1.93
2022-10-06T04:11:58.207Z,1.40
2022-10-06T04:14:26.632Z,1.90
2022-10-06T04:16:57.080Z,2.43
2022-10-06T04:19:36.981Z,1.40
2022-10-06T04:22:04.911Z,1.93
2022-10-06T04:24:35.044Z,1.70
2022-10-06T04:27:17.217Z,0.80
2022-10-06T04:29:50.589Z,1.00
2022-10-06T04:32:18.401Z,1.00
2022-10-06T04:34:46.393Z,1.10
2022-10-06T04:37:14.544Z,1.00
2022-10-06T04:39:44.925Z,0.90
2022-10-06T04:42:16.203Z,1.10
2022-10-06T04:44:44.891Z,1.00
2022-10-06T04:47:12.622Z,1.40
2022-10-06T04:49:40.464Z,0.97
2022-10-06T04:52:09.306Z,0.70
2022-10-06T04:54:39.297Z,0.80
2022-10-06T04:57:10.133Z,0.83
2022-10-06T04:59:55.577Z,0.70
2022-10-06T05:02:24.610Z,0.87
2022-10-06T05:04:56.042Z,0.80
2022-10-06T05:07:24.836Z,0.90
2022-10-06T05:09:53.884Z,0.87
2022-10-06T05:12:22.988Z,0.60
2022-10-06T05:14:51.313Z,1.13
2022-10-06T05:17:19.064Z,0.93
2022-10-06T05:19:47.891Z,0.90
2022-10-06T05:22:15.629Z,0.67
2022-10-06T05:24:43.360Z,0.53
2022-10-06T05:27:12.153Z,0.50
2022-10-06T05:29:41.993Z,0.77
2022-10-06T05:32:10.713Z,0.53
2022-10-06T05:34:38.751Z,0.50
2022-10-06T05:37:07.159Z,0.50
2022-10-06T05:39:35.972Z,0.70
2022-10-06T05:42:03.816Z,0.70
2022-10-06T05:44:32.571Z,0.50
2022-10-06T05:47:04.850Z,0.80
2022-10-06T05:49:32.807Z,0.90
2022-10-06T05:52:03.853Z,0.50
2022-10-06T05:54:34.662Z,0.60
2022-10-06T05:57:03.329Z,0.40
2022-10-06T05:59:33.416Z,0.47
2022-10-06T06:02:02.323Z,0.67
2022-10-06T06:04:42.192Z,0.80
2022-10-06T06:07:10.830Z,0.60
2022-10-06T06:09:40.746Z,0.50
2022-10-06T06:12:08.542Z,0.53
2022-10-06T06:15:07.731Z,1.17
2022-10-06T06:17:40.739Z,0.47
2022-10-06T06:20:10.900Z,0.40
2022-10-06T06:22:38.666Z,0.57
2022-10-06T06:25:08.394Z,0.57
2022-10-06T06:27:36.686Z,0.40
2022-10-06T06:30:06.101Z,0.50
2022-10-06T06:32:35.725Z,0.50
2022-10-06T06:35:04.449Z,0.80
2022-10-06T06:37:34.428Z,0.57
2022-10-06T06:40:02.923Z,0.70
2022-10-06T06:42:34.770Z,0.50
2022-10-06T06:45:37.908Z,0.50
2022-10-06T06:48:26.274Z,0.47
2022-10-06T06:50:58.524Z,0.83
2022-10-06T06:53:28.489Z,0.40
2022-10-06T06:55:59.060Z,0.50
2022-10-06T06:58:27.447Z,0.87
2022-10-06T07:00:55.953Z,1.17
2022-10-06T07:03:52.096Z,0.50
2022-10-06T07:06:16.256Z,0.90
2022-10-06T07:08:48.714Z,0.40
2022-10-06T07:11:19.605Z,0.50
2022-10-06T07:13:48.572Z,0.60
2022-10-06T07:16:35.304Z,0.63
2022-10-06T07:19:24.999Z,0.87
2022-10-06T07:22:12.162Z,0.90
2022-10-06T07:24:59.100Z,0.70
2022-10-06T07:27:28.121Z,0.87
2022-10-06T07:29:56.748Z,0.87
2022-10-06T07:32:26.290Z,0.70
2022-10-06T07:34:54.799Z,1.20
2022-10-06T07:37:24.096Z,1.00
2022-10-06T07:39:53.535Z,1.00
2022-10-06T07:42:21.657Z,0.57
2022-10-06T07:45:09.589Z,0.70
2022-10-06T07:47:40.105Z,0.73
2022-10-06T07:50:08.877Z,0.63
2022-10-06T07:52:39.316Z,0.73
2022-10-06T07:55:09.415Z,0.83
2022-10-06T07:57:46.071Z,0.80
2022-10-06T08:00:15.676Z,0.70
2022-10-06T08:02:43.488Z,0.40
2022-10-06T08:05:11.513Z,0.80
2022-10-06T08:07:39.213Z,0.60
2022-10-06T08:10:09.232Z,0.70
2022-10-06T08:12:39.997Z,0.80
2022-10-06T08:15:11.335Z,0.53
2022-10-06T08:17:39.333Z,1.03
2022-10-06T08:20:09.022Z,0.87
2022-10-06T08:22:38.646Z,0.60
2022-10-06T08:25:07.507Z,0.83
2022-10-06T08:27:40.386Z,1.07
2022-10-06T08:30:08.987Z,0.50
2022-10-06T08:32:37.355Z,0.70
2022-10-06T08:35:05.699Z,0.43
2022-10-06T08:37:33.468Z,0.60
2022-10-06T08:40:01.744Z,0.97
2022-10-06T08:42:38.086Z,0.60
2022-10-06T08:45:07.783Z,0.70
2022-10-06T08:47:37.087Z,0.57
2022-10-06T08:50:06.681Z,1.00
2022-10-06T08:52:43.595Z,0.70
2022-10-06T08:55:19.733Z,1.43
2022-10-06T08:57:56.646Z,0.60
2022-10-06T09:00:24.535Z,1.10
2022-10-06T09:02:52.168Z,0.87
2022-10-06T09:05:25.257Z,1.20
2022-10-06T09:08:02.384Z,0.57
2022-10-06T09:10:42.214Z,0.93
2022-10-06T09:13:17.358Z,0.70
2022-10-06T09:15:51.425Z,1.03
2022-10-06T09:18:22.362Z,0.83
2022-10-06T09:20:53.604Z,0.60
2022-10-06T09:23:42.622Z,0.70
2022-10-06T09:26:13.488Z,0.70
2022-10-06T09:28:46.138Z,1.40
2022-10-06T09:31:22.725Z,0.83
2022-10-06T09:33:53.532Z,0.90
2022-10-06T09:36:21.495Z,1.20
2022-10-06T09:38:55.216Z,0.70
2022-10-06T09:41:25.913Z,1.20
2022-10-06T09:43:59.817Z,0.50
2022-10-06T09:46:33.702Z,1.13
2022-10-06T09:49:16.214Z,1.10
2022-10-06T09:52:00.100Z,0.70
2022-10-06T09:54:29.739Z,0.60
2022-10-06T09:57:00.147Z,0.80
2022-10-06T09:59:39.113Z,0.70
2022-10-06T10:02:24.881Z,0.70
2022-10-06T10:04:55.065Z,0.70
2022-10-06T10:07:24.832Z,1.07
2022-10-06T10:09:52.752Z,1.30
2022-10-06T10:12:31.165Z,0.50
2022-10-06T10:15:04.039Z,0.97
2022-10-06T10:17:36.488Z,1.00
2022-10-06T10:20:08.991Z,0.83
2022-10-06T10:22:38.635Z,0.50
2022-10-06T10:25:15.679Z,1.03
2022-10-06T10:27:52.280Z,1.00
2022-10-06T10:30:21.673Z,0.60
2022-10-06T10:32:54.926Z,0.73
2022-10-06T10:35:26.191Z,1.60
2022-10-06T10:37:59.490Z,1.20
2022-10-06T10:40:34.105Z,1.03
2022-10-06T10:43:07.399Z,0.90
2022-10-06T10:45:41.182Z,0.77
2022-10-06T10:48:14.348Z,0.63
2022-10-06T10:50:50.186Z,12.00
2022-10-06T10:53:22.272Z,9.20
2022-10-06T10:55:51.453Z,4.60
2022-10-06T10:58:22.089Z,1.00
2022-10-06T11:00:54.685Z,1.57
2022-10-06T11:03:22.502Z,1.57
2022-10-06T11:06:16.901Z,0.87
2022-10-06T11:08:49.459Z,1.40
2022-10-06T11:11:21.554Z,2.97
2022-10-06T11:13:52.657Z,0.67
2022-10-06T11:16:29.656Z,1.37
2022-10-06T11:19:11.782Z,0.87
2022-10-06T11:21:44.565Z,1.33
2022-10-06T11:24:16.302Z,1.70
2022-10-06T11:26:59.794Z,0.70
2022-10-06T11:29:35.872Z,1.10
2022-10-06T11:32:13.326Z,0.70
2022-10-06T11:34:42.004Z,0.90
2022-10-06T11:37:19.683Z,1.00
2022-10-06T11:39:52.314Z,0.60
2022-10-06T11:42:24.938Z,0.80
2022-10-06T11:44:59.272Z,0.60
2022-10-06T11:47:35.346Z,0.70
2022-10-06T11:50:04.209Z,0.77
2022-10-06T11:52:56.332Z,0.60
2022-10-06T11:55:26.331Z,1.23
2022-10-06T11:58:29.706Z,0.70
2022-10-06T12:00:56.604Z,1.10
2022-10-06T12:04:13.265Z,0.90
2022-10-06T12:07:05.388Z,0.70
2022-10-06T12:09:51.716Z,0.50
2022-10-06T12:12:41.292Z,0.60
2022-10-06T12:18:15.709Z,0.80
2022-10-06T12:20:54.812Z,0.60
2022-10-06T12:23:34.558Z,1.10
2022-10-06T12:26:06.323Z,1.27
2022-10-06T12:28:37.227Z,0.90
2022-10-06T12:31:21.562Z,0.97
2022-10-06T12:33:50.504Z,0.70
2022-10-06T12:36:21.528Z,1.00
2022-10-06T12:39:05.867Z,0.90
2022-10-06T12:41:59.150Z,1.07
2022-10-06T12:44:28.527Z,0.80
2022-10-06T12:46:59.208Z,1.30
2022-10-06T12:49:41.345Z,1.10
2022-10-06T12:52:18.471Z,0.90
2022-10-06T12:54:50.793Z,0.60
2022-10-06T12:57:20.634Z,0.80
2022-10-06T12:59:49.414Z,0.83
2022-10-06T13:02:20.360Z,0.93
2022-10-06T13:04:52.850Z,0.60
2022-10-06T13:07:23.781Z,0.80
2022-10-06T13:09:52.708Z,0.77
2022-10-06T13:12:29.193Z,0.60
2022-10-06T13:15:17.518Z,0.80
2022-10-06T13:17:47.276Z,0.67
2022-10-06T13:20:20.904Z,0.77
2022-10-06T13:22:57.948Z,1.37
2022-10-06T13:25:26.051Z,0.93
2022-10-06T13:27:53.813Z,1.10
2022-10-06T13:30:23.659Z,1.00
2022-10-06T13:32:53.619Z,0.83
2022-10-06T13:35:23.601Z,0.60
2022-10-06T13:37:51.976Z,0.70
2022-10-06T13:40:45.656Z,0.67
2022-10-06T13:43:18.155Z,0.70
2022-10-06T13:45:48.280Z,1.00
2022-10-06T13:48:18.354Z,0.93
2022-10-06T13:50:47.143Z,1.10
2022-10-06T13:53:27.547Z,1.10
2022-10-06T13:55:57.009Z,0.73
2022-10-06T13:58:27.877Z,0.97
2022-10-06T14:00:57.690Z,1.20
2022-10-06T14:03:28.305Z,1.33
2022-10-06T14:06:09.596Z,0.80
2022-10-06T14:08:37.664Z,0.70
2022-10-06T14:11:08.397Z,0.70
2022-10-06T14:13:42.803Z,1.10
2022-10-06T14:16:19.363Z,0.97
2022-10-06T14:21:35.549Z,0.97
2022-10-06T14:24:07.554Z,0.80
2022-10-06T14:26:41.604Z,0.70
2022-10-06T14:29:10.309Z,0.60
2022-10-06T14:31:38.302Z,1.23
2022-10-06T14:34:13.941Z,0.80
2022-10-06T14:36:42.599Z,1.10
2022-10-06T14:39:12.962Z,1.00
2022-10-06T14:41:42.301Z,0.93
2022-10-06T14:44:12.227Z,0.67
2022-10-06T14:46:41.930Z,1.07
2022-10-06T14:49:11.270Z,1.00
2022-10-06T14:51:40.248Z,1.23
2022-10-06T14:54:10.429Z,0.67
2022-10-06T14:56:39.310Z,0.73
2022-10-06T14:59:09.532Z,1.00
2022-10-06T15:01:40.287Z,1.43
2022-10-06T15:04:10.189Z,0.40
2022-10-06T15:06:55.451Z,0.77
2022-10-06T15:09:23.747Z,0.70
2022-10-06T15:11:52.096Z,0.70
2022-10-06T15:14:22.381Z,0.77
2022-10-06T15:16:51.065Z,0.80
2022-10-06T15:19:18.942Z,0.70
2022-10-06T15:21:47.001Z,0.70
2022-10-06T15:24:16.378Z,0.80
2022-10-06T15:27:02.032Z,0.90
2022-10-06T15:29:31.472Z,0.73
2022-10-06T15:32:00.306Z,1.00
2022-10-06T15:34:30.422Z,0.73
2022-10-06T15:36:58.860Z,0.80
2022-10-06T15:39:28.067Z,0.70
2022-10-06T15:41:55.813Z,0.57
2022-10-06T15:44:23.650Z,1.00
2022-10-06T15:46:53.933Z,0.90
2022-10-06T15:49:22.885Z,0.90
2022-10-06T15:51:53.535Z,0.83
2022-10-06T15:54:23.675Z,1.07
2022-10-06T15:56:52.723Z,1.17
2022-10-06T15:59:22.574Z,1.50
2022-10-06T16:01:53.188Z,0.70
2022-10-06T16:04:31.126Z,0.60
2022-10-06T16:06:59.191Z,1.27
2022-10-06T16:09:28.176Z,1.03
2022-10-06T16:11:56.893Z,1.10
2022-10-06T16:14:25.531Z,1.00
2022-10-06T16:16:59.134Z,1.40
2022-10-06T16:19:27.925Z,0.90
2022-10-06T16:21:58.981Z,0.80
2022-10-06T16:24:27.477Z,1.10
2022-10-06T16:26:57.225Z,1.20
2022-10-06T16:29:25.102Z,1.10
2022-10-06T16:31:54.262Z,1.20
2022-10-06T16:34:22.476Z,1.50
2022-10-06T16:36:50.243Z,1.13
2022-10-06T16:39:20.052Z,1.13
2022-10-06T16:41:48.232Z,1.40
2022-10-06T16:44:16.161Z,1.00
2022-10-06T16:46:44.106Z,1.50
2022-10-06T16:49:13.411Z,1.10
2022-10-06T16:51:42.432Z,1.57
2022-10-06T16:54:11.817Z,1.90
2022-10-06T16:56:40.957Z,1.73
2022-10-06T16:59:13.084Z,2.10
2022-10-06T17:01:40.972Z,1.30
2022-10-06T17:04:09.865Z,1.43
2022-10-06T17:06:40.353Z,1.83
2022-10-06T17:09:10.015Z,7.50
2022-10-06T17:11:38.186Z,1.40
2022-10-06T17:14:06.195Z,2.10
2022-10-06T17:16:35.524Z,4.60
2022-10-06T17:19:04.010Z,3.50
2022-10-06T17:21:45.757Z,2.30
2022-10-06T17:24:17.550Z,2.10
2022-10-06T17:26:47.182Z,2.30
2022-10-06T17:29:18.205Z,2.13
2022-10-06T17:31:46.376Z,1.80
2022-10-06T17:34:20.442Z,2.70
2022-10-06T17:36:50.991Z,2.23
2022-10-06T17:39:22.533Z,2.77
2022-10-06T17:41:51.387Z,3.60
2022-10-06T17:44:22.762Z,2.20
2022-10-06T17:46:52.569Z,2.30
2022-10-06T17:49:21.787Z,4.40
2022-10-06T17:51:51.716Z,2.50
2022-10-06T17:54:22.790Z,2.37
2022-10-06T17:56:52.553Z,2.43
2022-10-06T17:59:22.386Z,2.90
2022-10-06T18:01:52.130Z,2.33
2022-10-06T18:04:20.581Z,1.90
2022-10-06T18:06:48.958Z,2.23
2022-10-06T18:09:16.961Z,2.07
2022-10-06T18:11:48.279Z,2.30
2022-10-06T18:14:17.323Z,3.30
2022-10-06T18:16:46.319Z,2.20
2022-10-06T18:19:16.041Z,1.87
2022-10-06T18:21:45.493Z,2.10
2022-10-06T18:24:16.058Z,3.13
2022-10-06T18:26:44.083Z,2.00
2022-10-06T18:29:13.118Z,2.20
2022-10-06T18:31:40.900Z,3.47
2022-10-06T18:37:01.741Z,2.40
2022-10-06T18:39:31.352Z,2.80
2022-10-06T18:42:02.663Z,2.13
2022-10-06T18:44:49.521Z,3.13
2022-10-06T18:47:40.459Z,2.10
2022-10-06T18:50:08.711Z,2.00
2022-10-06T18:52:36.394Z,2.20
2022-10-06T18:55:04.167Z,2.47
2022-10-06T18:57:32.557Z,2.87
2022-10-06T19:00:01.674Z,1.90
2022-10-06T19:02:29.382Z,1.90
2022-10-06T19:04:57.159Z,2.20
2022-10-06T19:07:25.056Z,2.40
2022-10-06T19:09:52.767Z,1.90
2022-10-06T19:12:20.516Z,2.17
2022-10-06T19:14:48.176Z,2.30
2022-10-06T19:17:17.300Z,2.83
2022-10-06T19:19:47.955Z,2.67
2022-10-06T19:22:16.155Z,4.17
2022-10-06T19:24:45.425Z,3.40
2022-10-06T19:27:16.361Z,2.40
2022-10-06T19:29:46.882Z,2.73
2022-10-06T19:32:17.882Z,3.27
2022-10-06T19:34:46.804Z,3.60
2022-10-06T19:37:14.911Z,2.93
2022-10-06T19:39:44.935Z,2.50
2022-10-06T19:42:30.637Z,3.80
2022-10-06T19:44:58.640Z,2.50
2022-10-06T19:47:28.471Z,3.37
2022-10-06T19:50:02.184Z,11.03
2022-10-06T19:52:32.238Z,2.70
2022-10-06T19:55:00.715Z,2.50
2022-10-06T19:57:29.286Z,2.57
2022-10-06T19:59:57.087Z,2.50
2022-10-06T20:02:24.784Z,2.47
2022-10-06T20:04:53.875Z,2.63
2022-10-06T20:07:25.323Z,2.87
2022-10-06T20:09:53.202Z,3.53
2022-10-06T20:12:24.602Z,2.80
2022-10-06T20:14:53.743Z,3.30
2022-10-06T20:17:22.186Z,2.90
2022-10-06T20:19:53.931Z,3.13
2022-10-06T20:22:26.369Z,3.33
2022-10-06T20:24:54.176Z,3.27
2022-10-06T20:27:21.907Z,3.47
2022-10-06T20:29:49.613Z,2.33
2022-10-06T20:32:17.322Z,2.23
2022-10-06T20:34:45.321Z,2.17
2022-10-06T20:37:13.026Z,2.30
2022-10-06T20:39:59.471Z,2.50
2022-10-06T20:42:27.929Z,2.60
2022-10-06T20:44:55.652Z,2.77
2022-10-06T20:47:23.538Z,1.80
2022-10-06T20:49:54.924Z,2.33
2022-10-06T20:52:23.144Z,2.20
2022-10-06T20:54:52.259Z,2.90
2022-10-06T20:57:20.043Z,2.13
2022-10-06T20:59:49.067Z,2.30
2022-10-06T21:02:16.946Z,1.93
2022-10-06T21:04:45.106Z,3.03
2022-10-06T21:07:12.883Z,2.63
2022-10-06T21:09:40.673Z,2.50
2022-10-06T21:12:09.863Z,2.20
2022-10-06T21:14:37.884Z,2.77
2022-10-06T21:17:06.729Z,2.57
2022-10-06T21:19:37.691Z,2.93
2022-10-06T21:22:06.122Z,3.00
2022-10-06T21:24:33.888Z,2.90
2022-10-06T21:27:02.027Z,2.70
2022-10-06T21:29:31.153Z,2.70
2022-10-06T21:31:59.679Z,2.27
2022-10-06T21:34:27.473Z,2.50
2022-10-06T21:36:55.242Z,2.63
2022-10-06T21:39:22.992Z,2.83
2022-10-06T21:41:50.733Z,3.03
2022-10-06T21:44:19.459Z,2.60
2022-10-06T21:46:49.712Z,2.90
2022-10-06T21:49:19.133Z,3.10
2022-10-06T21:51:48.482Z,3.10
2022-10-06T21:54:16.964Z,2.60
2022-10-06T21:56:44.864Z,2.43
2022-10-06T21:59:13.214Z,2.83
2022-10-06T22:01:42.547Z,3.17
2022-10-06T22:04:12.946Z,3.50
2022-10-06T22:06:41.211Z,2.87
2022-10-06T22:09:10.308Z,2.80
2022-10-06T22:11:40.971Z,2.43
2022-10-06T22:14:11.848Z,2.27
2022-10-06T22:16:39.933Z,2.83
2022-10-06T22:19:09.004Z,2.83
2022-10-06T22:21:39.546Z,3.00
2022-10-06T22:24:08.710Z,3.53
2022-10-06T22:26:38.289Z,2.87
2022-10-06T22:29:07.089Z,3.10
2022-10-06T22:31:35.170Z,2.60
2022-10-06T22:34:05.379Z,3.13
2022-10-06T22:36:33.725Z,3.70
2022-10-06T22:39:03.388Z,3.00
2022-10-06T22:41:31.246Z,3.73
2022-10-06T22:44:00.049Z,3.10
2022-10-06T22:46:29.922Z,3.20
2022-10-06T22:48:57.779Z,3.33
2022-10-06T22:51:26.061Z,2.80
2022-10-06T22:53:57.892Z,2.97
2022-10-06T22:56:28.330Z,3.07
2022-10-06T22:58:59.371Z,3.30
2022-10-06T23:01:27.740Z,3.63
2022-10-06T23:03:55.837Z,3.53
2022-10-06T23:06:24.515Z,3.07
2022-10-06T23:08:52.293Z,4.33
2022-10-06T23:11:21.945Z,2.83
2022-10-06T23:13:52.965Z,4.00
2022-10-06T23:16:21.472Z,4.33
2022-10-06T23:18:49.533Z,3.53
2022-10-06T23:21:21.708Z,4.03
2022-10-06T23:23:51.134Z,3.70
2022-10-06T23:26:19.933Z,3.80
2022-10-06T23:28:53.161Z,3.77
2022-10-06T23:31:21.066Z,3.70
2022-10-06T23:33:49.112Z,3.53
2022-10-06T23:36:17.764Z,3.97
2022-10-06T23:38:45.996Z,3.60
2022-10-06T23:41:14.291Z,3.40
2022-10-06T23:43:42.158Z,4.70
2022-10-06T23:46:11.563Z,3.70
2022-10-06T23:48:39.428Z,3.60
2022-10-06T23:51:08.987Z,4.70
2022-10-06T23:53:36.842Z,4.13
2022-10-06T23:56:05.129Z,3.40
2022-10-06T23:58:32.878Z,3.50
